Terminal Aerodrome Forecast
Issued by NWS

Home | Current Version | Previous Version | Text Only | Print | Product List | Glossary On
Versions: 1 2 3 4 5 6 7 8 9 10 11 12 13 14 15
000
FTUS45 KGJT 220521
TAFTEX
TAF
KTEX 220521Z 2206/2306 15011G16KT P6SM SKC WS020/20045KT
     FM221100 16014G30KT P6SM VCSH SCT060 BKN140 WS020/20040KT
     FM221500 17013G27KT P6SM VCSH SCT060 BKN100
     FM222100 16011G22KT P6SM VCTS SCT060CB BKN080
     FM230000 18011G24KT P6SM SCT060 BKN090
     FM230500 17007KT P6SM SCT050 BKN080=

USA.gov is the U.S. government's official web portal to all federal, state and local government web resources and services.